sensor_id;sensor_type;location;lat;lon;timestamp;pressure;altitude;pressure_sealevel;temperature
31528;BMP280;10206;48.012;10.030;2022-07-10T00:00:38;95449.97;;;20.15
31528;BMP280;10206;48.012;10.030;2022-07-10T00:03:05;95442.56;;;20.06
31528;BMP280;10206;48.012;10.030;2022-07-10T00:05:31;95443.00;;;20.01
31528;BMP280;10206;48.012;10.030;2022-07-10T00:08:01;95437.56;;;19.89
31528;BMP280;10206;48.012;10.030;2022-07-10T00:10:27;95446.38;;;19.86
31528;BMP280;10206;48.012;10.030;2022-07-10T00:12:55;95440.00;;;19.97
31528;BMP280;10206;48.012;10.030;2022-07-10T00:15:21;95446.00;;;19.91
31528;BMP280;10206;48.012;10.030;2022-07-10T00:17:48;95443.72;;;19.74
31528;BMP280;10206;48.012;10.030;2022-07-10T00:20:15;95441.38;;;19.82
31528;BMP280;10206;48.012;10.030;2022-07-10T00:22:42;95452.34;;;20.07
31528;BMP280;10206;48.012;10.030;2022-07-10T00:25:11;95444.97;;;19.98
31528;BMP280;10206;48.012;10.030;2022-07-10T00:27:37;95450.78;;;19.77
31528;BMP280;10206;48.012;10.030;2022-07-10T00:30:04;95453.06;;;19.94
31528;BMP280;10206;48.012;10.030;2022-07-10T00:32:31;95442.91;;;19.85
31528;BMP280;10206;48.012;10.030;2022-07-10T00:34:57;95443.22;;;19.78
31528;BMP280;10206;48.012;10.030;2022-07-10T00:37:23;95441.56;;;19.59
31528;BMP280;10206;48.012;10.030;2022-07-10T00:39:49;95445.38;;;19.66
31528;BMP280;10206;48.012;10.030;2022-07-10T00:42:16;95441.03;;;19.49
31528;BMP280;10206;48.012;10.030;2022-07-10T00:44:43;95444.31;;;19.73
31528;BMP280;10206;48.012;10.030;2022-07-10T00:47:10;95443.28;;;19.39
31528;BMP280;10206;48.012;10.030;2022-07-10T00:49:38;95438.16;;;19.47
31528;BMP280;10206;48.012;10.030;2022-07-10T00:52:08;95441.50;;;19.32
31528;BMP280;10206;48.012;10.030;2022-07-10T00:54:39;95441.09;;;19.24
31528;BMP280;10206;48.012;10.030;2022-07-10T00:57:07;95442.56;;;19.00
31528;BMP280;10206;48.012;10.030;2022-07-10T00:59:34;95436.03;;;19.07
31528;BMP280;10206;48.012;10.030;2022-07-10T01:02:04;95433.81;;;18.92
31528;BMP280;10206;48.012;10.030;2022-07-10T01:04:31;95436.97;;;18.86
31528;BMP280;10206;48.012;10.030;2022-07-10T01:06:57;95436.28;;;18.86
31528;BMP280;10206;48.012;10.030;2022-07-10T01:09:23;95429.28;;;18.85
31528;BMP280;10206;48.012;10.030;2022-07-10T01:11:49;95437.97;;;18.79
31528;BMP280;10206;48.012;10.030;2022-07-10T01:14:16;95430.03;;;18.49
31528;BMP280;10206;48.012;10.030;2022-07-10T01:16:43;95426.91;;;18.42
31528;BMP280;10206;48.012;10.030;2022-07-10T01:19:09;95416.66;;;18.57
31528;BMP280;10206;48.012;10.030;2022-07-10T01:21:36;95422.31;;;18.59
31528;BMP280;10206;48.012;10.030;2022-07-10T01:24:10;95416.66;;;18.57
31528;BMP280;10206;48.012;10.030;2022-07-10T01:26:37;95418.53;;;18.41
31528;BMP280;10206;48.012;10.030;2022-07-10T01:29:05;95423.69;;;18.34
31528;BMP280;10206;48.012;10.030;2022-07-10T01:31:32;95423.94;;;18.38
31528;BMP280;10206;48.012;10.030;2022-07-10T01:34:00;95420.91;;;18.46
31528;BMP280;10206;48.012;10.030;2022-07-10T01:36:28;95412.28;;;18.28
31528;BMP280;10206;48.012;10.030;2022-07-10T01:38:56;95411.22;;;18.33
31528;BMP280;10206;48.012;10.030;2022-07-10T01:41:24;95412.28;;;18.40
31528;BMP280;10206;48.012;10.030;2022-07-10T01:43:50;95409.09;;;18.20
31528;BMP280;10206;48.012;10.030;2022-07-10T01:46:17;95405.03;;;18.21
31528;BMP280;10206;48.012;10.030;2022-07-10T01:48:43;95409.09;;;18.09
31528;BMP280;10206;48.012;10.030;2022-07-10T01:51:10;95407.22;;;18.11
31528;BMP280;10206;48.012;10.030;2022-07-10T01:53:37;95410.56;;;18.10
31528;BMP280;10206;48.012;10.030;2022-07-10T01:56:09;95411.28;;;18.10
31528;BMP280;10206;48.012;10.030;2022-07-10T01:58:36;95407.84;;;17.98
31528;BMP280;10206;48.012;10.030;2022-07-10T02:01:03;95414.44;;;17.93
31528;BMP280;10206;48.012;10.030;2022-07-10T02:03:29;95400.50;;;18.03
31528;BMP280;10206;48.012;10.030;2022-07-10T02:06:14;95403.72;;;18.11
31528;BMP280;10206;48.012;10.030;2022-07-10T02:08:40;95399.41;;;18.08
31528;BMP280;10206;48.012;10.030;2022-07-10T02:11:06;95393.97;;;18.21
31528;BMP280;10206;48.012;10.030;2022-07-10T02:13:32;95393.16;;;18.07
31528;BMP280;10206;48.012;10.030;2022-07-10T02:15:58;95396.16;;;18.11
31528;BMP280;10206;48.012;10.030;2022-07-10T02:18:25;95396.38;;;18.15
31528;BMP280;10206;48.012;10.030;2022-07-10T02:20:52;95398.53;;;18.17
31528;BMP280;10206;48.012;10.030;2022-07-10T02:23:18;95407.41;;;18.27
31528;BMP280;10206;48.012;10.030;2022-07-10T02:25:44;95404.66;;;18.15
31528;BMP280;10206;48.012;10.030;2022-07-10T02:28:10;95402.72;;;18.18
31528;BMP280;10206;48.012;10.030;2022-07-10T02:30:37;95401.97;;;18.29
31528;BMP280;10206;48.012;10.030;2022-07-10T02:33:03;95400.59;;;18.16
31528;BMP280;10206;48.012;10.030;2022-07-10T02:35:29;95405.13;;;18.23
31528;BMP280;10206;48.012;10.030;2022-07-10T02:37:55;95400.47;;;18.14
31528;BMP280;10206;48.012;10.030;2022-07-10T02:40:21;95399.72;;;18.51
31528;BMP280;10206;48.012;10.030;2022-07-10T02:42:47;95400.63;;;17.82
31528;BMP280;10206;48.012;10.030;2022-07-10T02:45:13;95400.00;;;18.06
31528;BMP280;10206;48.012;10.030;2022-07-10T02:47:39;95399.13;;;18.27
31528;BMP280;10206;48.012;10.030;2022-07-10T02:50:06;95400.13;;;18.08
31528;BMP280;10206;48.012;10.030;2022-07-10T02:52:32;95394.25;;;18.02
31528;BMP280;10206;48.012;10.030;2022-07-10T02:54:58;95398.81;;;17.98
31528;BMP280;10206;48.012;10.030;2022-07-10T02:57:25;95392.66;;;18.11
31528;BMP280;10206;48.012;10.030;2022-07-10T02:59:51;95394.47;;;18.06
31528;BMP280;10206;48.012;10.030;2022-07-10T03:02:17;95396.38;;;18.27
31528;BMP280;10206;48.012;10.030;2022-07-10T03:04:43;95393.44;;;17.77
31528;BMP280;10206;48.012;10.030;2022-07-10T03:07:09;95393.28;;;17.86
31528;BMP280;10206;48.012;10.030;2022-07-10T03:09:35;95393.09;;;17.82
31528;BMP280;10206;48.012;10.030;2022-07-10T03:12:01;95399.28;;;17.94
31528;BMP280;10206;48.012;10.030;2022-07-10T03:14:28;95393.88;;;17.96
31528;BMP280;10206;48.012;10.030;2022-07-10T03:16:54;95396.09;;;18.23
31528;BMP280;10206;48.012;10.030;2022-07-10T03:19:20;95397.44;;;18.22
31528;BMP280;10206;48.012;10.030;2022-07-10T03:21:46;95390.69;;;18.25
31528;BMP280;10206;48.012;10.030;2022-07-10T03:24:12;95392.72;;;18.36
31528;BMP280;10206;48.012;10.030;2022-07-10T03:26:39;95396.06;;;18.34
31528;BMP280;10206;48.012;10.030;2022-07-10T03:29:05;95397.28;;;18.31
31528;BMP280;10206;48.012;10.030;2022-07-10T03:31:31;95395.00;;;18.28
31528;BMP280;10206;48.012;10.030;2022-07-10T03:33:57;95393.47;;;18.25
31528;BMP280;10206;48.012;10.030;2022-07-10T03:36:23;95398.53;;;18.17
31528;BMP280;10206;48.012;10.030;2022-07-10T03:38:49;95403.09;;;18.24
31528;BMP280;10206;48.012;10.030;2022-07-10T03:41:16;95410.13;;;18.38
31528;BMP280;10206;48.012;10.030;2022-07-10T03:43:42;95400.59;;;18.41
31528;BMP280;10206;48.012;10.030;2022-07-10T03:46:08;95412.28;;;18.28
31528;BMP280;10206;48.012;10.030;2022-07-10T03:48:34;95406.69;;;18.26
31528;BMP280;10206;48.012;10.030;2022-07-10T03:51:01;95407.34;;;18.38
31528;BMP280;10206;48.012;10.030;2022-07-10T03:53:27;95408.81;;;18.39
31528;BMP280;10206;48.012;10.030;2022-07-10T03:55:53;95410.00;;;18.36
31528;BMP280;10206;48.012;10.030;2022-07-10T03:58:20;95405.09;;;18.60
31528;BMP280;10206;48.012;10.030;2022-07-10T04:00:46;95402.47;;;18.51
31528;BMP280;10206;48.012;10.030;2022-07-10T04:03:12;95402.13;;;18.56
31528;BMP280;10206;48.012;10.030;2022-07-10T04:05:40;95404.16;;;18.56
31528;BMP280;10206;48.012;10.030;2022-07-10T04:08:06;95404.00;;;18.65
31528;BMP280;10206;48.012;10.030;2022-07-10T04:10:33;95406.31;;;18.57
31528;BMP280;10206;48.012;10.030;2022-07-10T04:12:59;95407.03;;;18.58
31528;BMP280;10206;48.012;10.030;2022-07-10T04:15:26;95414.44;;;18.67
31528;BMP280;10206;48.012;10.030;2022-07-10T04:17:52;95416.28;;;18.87
31528;BMP280;10206;48.012;10.030;2022-07-10T04:20:19;95410.78;;;19.01
31528;BMP280;10206;48.012;10.030;2022-07-10T04:22:45;95410.84;;;19.14
31528;BMP280;10206;48.012;10.030;2022-07-10T04:25:12;95415.19;;;19.58
31528;BMP280;10206;48.012;10.030;2022-07-10T04:27:39;95403.41;;;19.58
31528;BMP280;10206;48.012;10.030;2022-07-10T04:30:06;95404.66;;;19.68
31528;BMP280;10206;48.012;10.030;2022-07-10T04:32:32;95396.81;;;20.05
31528;BMP280;10206;48.012;10.030;2022-07-10T04:34:59;95405.28;;;20.66
31528;BMP280;10206;48.012;10.030;2022-07-10T04:37:26;95407.31;;;20.94
31528;BMP280;10206;48.012;10.030;2022-07-10T04:39:53;95413.47;;;20.64
31528;BMP280;10206;48.012;10.030;2022-07-10T04:42:20;95420.16;;;20.29
31528;BMP280;10206;48.012;10.030;2022-07-10T04:44:46;95414.56;;;20.00
31528;BMP280;10206;48.012;10.030;2022-07-10T04:47:12;95420.03;;;19.85
31528;BMP280;10206;48.012;10.030;2022-07-10T04:49:38;95412.44;;;19.72
31528;BMP280;10206;48.012;10.030;2022-07-10T04:52:05;95414.06;;;19.63
31528;BMP280;10206;48.012;10.030;2022-07-10T04:54:31;95406.19;;;19.71
31528;BMP280;10206;48.012;10.030;2022-07-10T04:56:58;95409.78;;;19.74
31528;BMP280;10206;48.012;10.030;2022-07-10T04:59:24;95409.13;;;19.89
31528;BMP280;10206;48.012;10.030;2022-07-10T05:01:51;95408.53;;;19.90
31528;BMP280;10206;48.012;10.030;2022-07-10T05:04:17;95413.44;;;19.51
31528;BMP280;10206;48.012;10.030;2022-07-10T05:06:43;95409.75;;;19.60
31528;BMP280;10206;48.012;10.030;2022-07-10T05:09:09;95417.34;;;19.73
31528;BMP280;10206;48.012;10.030;2022-07-10T05:11:35;95418.69;;;19.72
31528;BMP280;10206;48.012;10.030;2022-07-10T05:14:01;95418.19;;;19.76
31528;BMP280;10206;48.012;10.030;2022-07-10T05:16:28;95423.38;;;19.83
31528;BMP280;10206;48.012;10.030;2022-07-10T05:18:54;95416.94;;;19.92
31528;BMP280;10206;48.012;10.030;2022-07-10T05:21:20;95415.50;;;19.64
31528;BMP280;10206;48.012;10.030;2022-07-10T05:23:46;95417.78;;;19.81
31528;BMP280;10206;48.012;10.030;2022-07-10T05:26:12;95416.31;;;19.80
31528;BMP280;10206;48.012;10.030;2022-07-10T05:28:38;95411.78;;;20.00
31528;BMP280;10206;48.012;10.030;2022-07-10T05:31:04;95414.41;;;20.25
31528;BMP280;10206;48.012;10.030;2022-07-10T05:33:30;95414.91;;;20.49
31528;BMP280;10206;48.012;10.030;2022-07-10T05:35:58;95421.00;;;20.18
31528;BMP280;10206;48.012;10.030;2022-07-10T05:38:24;95418.28;;;20.34
31528;BMP280;10206;48.012;10.030;2022-07-10T05:40:50;95420.88;;;20.88
31528;BMP280;10206;48.012;10.030;2022-07-10T05:43:18;95426.78;;;20.96
31528;BMP280;10206;48.012;10.030;2022-07-10T05:45:45;95428.38;;;20.86
31528;BMP280;10206;48.012;10.030;2022-07-10T05:48:11;95419.28;;;20.99
31528;BMP280;10206;48.012;10.030;2022-07-10T05:50:37;95427.09;;;21.18
31528;BMP280;10206;48.012;10.030;2022-07-10T05:53:03;95421.53;;;21.33
31528;BMP280;10206;48.012;10.030;2022-07-10T05:55:29;95432.94;;;21.39
31528;BMP280;10206;48.012;10.030;2022-07-10T05:57:55;95428.44;;;21.32
31528;BMP280;10206;48.012;10.030;2022-07-10T06:00:21;95431.22;;;21.17
31528;BMP280;10206;48.012;10.030;2022-07-10T06:02:47;95433.63;;;20.64
31528;BMP280;10206;48.012;10.030;2022-07-10T06:05:14;95427.72;;;21.01
31528;BMP280;10206;48.012;10.030;2022-07-10T06:07:40;95431.63;;;20.96
31528;BMP280;10206;48.012;10.030;2022-07-10T06:10:06;95432.63;;;21.18
31528;BMP280;10206;48.012;10.030;2022-07-10T06:12:33;95437.13;;;21.25
31528;BMP280;10206;48.012;10.030;2022-07-10T06:14:59;95439.91;;;20.80
31528;BMP280;10206;48.012;10.030;2022-07-10T06:17:25;95443.41;;;20.52
31528;BMP280;10206;48.012;10.030;2022-07-10T06:19:51;95448.50;;;20.28
31528;BMP280;10206;48.012;10.030;2022-07-10T06:22:17;95437.34;;;20.55
31528;BMP280;10206;48.012;10.030;2022-07-10T06:25:05;95434.09;;;20.74
31528;BMP280;10206;48.012;10.030;2022-07-10T06:27:31;95444.69;;;20.93
31528;BMP280;10206;48.012;10.030;2022-07-10T06:29:58;95446.16;;;21.10
31528;BMP280;10206;48.012;10.030;2022-07-10T06:32:25;95451.88;;;20.98
31528;BMP280;10206;48.012;10.030;2022-07-10T06:34:53;95463.75;;;20.56
31528;BMP280;10206;48.012;10.030;2022-07-10T06:37:20;95459.84;;;20.48
31528;BMP280;10206;48.012;10.030;2022-07-10T06:39:46;95459.00;;;20.59
31528;BMP280;10206;48.012;10.030;2022-07-10T06:42:14;95456.22;;;20.59
31528;BMP280;10206;48.012;10.030;2022-07-10T06:44:44;95453.72;;;20.35
31528;BMP280;10206;48.012;10.030;2022-07-10T06:47:12;95456.34;;;20.47
31528;BMP280;10206;48.012;10.030;2022-07-10T06:49:57;95454.59;;;20.54
31528;BMP280;10206;48.012;10.030;2022-07-10T06:52:23;95443.44;;;20.96
31528;BMP280;10206;48.012;10.030;2022-07-10T06:54:50;95449.53;;;20.93
31528;BMP280;10206;48.012;10.030;2022-07-10T06:57:16;95449.31;;;20.30
31528;BMP280;10206;48.012;10.030;2022-07-10T06:59:44;95454.75;;;20.28
31528;BMP280;10206;48.012;10.030;2022-07-10T07:02:10;95458.91;;;20.57
31528;BMP280;10206;48.012;10.030;2022-07-10T07:04:36;95461.06;;;20.58
31528;BMP280;10206;48.012;10.030;2022-07-10T07:07:03;95457.28;;;20.81
31528;BMP280;10206;48.012;10.030;2022-07-10T07:09:29;95458.41;;;20.76
31528;BMP280;10206;48.012;10.030;2022-07-10T07:11:55;95455.16;;;21.39
31528;BMP280;10206;48.012;10.030;2022-07-10T07:14:21;95457.34;;;21.90
31528;BMP280;10206;48.012;10.030;2022-07-10T07:16:47;95459.84;;;21.84
31528;BMP280;10206;48.012;10.030;2022-07-10T07:19:24;95454.66;;;21.76
31528;BMP280;10206;48.012;10.030;2022-07-10T07:21:59;95463.09;;;21.78
31528;BMP280;10206;48.012;10.030;2022-07-10T07:24:44;95469.59;;;22.00
31528;BMP280;10206;48.012;10.030;2022-07-10T07:27:13;95469.63;;;21.69
31528;BMP280;10206;48.012;10.030;2022-07-10T07:29:40;95465.97;;;21.49
31528;BMP280;10206;48.012;10.030;2022-07-10T07:32:06;95464.00;;;21.36
31528;BMP280;10206;48.012;10.030;2022-07-10T07:34:32;95458.00;;;21.26
31528;BMP280;10206;48.012;10.030;2022-07-10T07:36:58;95461.22;;;21.52
31528;BMP280;10206;48.012;10.030;2022-07-10T07:39:24;95451.72;;;21.41
31528;BMP280;10206;48.012;10.030;2022-07-10T07:41:51;95451.91;;;21.29
31528;BMP280;10206;48.012;10.030;2022-07-10T07:44:17;95456.16;;;21.79
31528;BMP280;10206;48.012;10.030;2022-07-10T07:46:44;95460.72;;;22.21
31528;BMP280;10206;48.012;10.030;2022-07-10T07:49:10;95456.34;;;21.83
31528;BMP280;10206;48.012;10.030;2022-07-10T07:51:36;95453.06;;;22.20
31528;BMP280;10206;48.012;10.030;2022-07-10T07:54:02;95450.94;;;22.53
31528;BMP280;10206;48.012;10.030;2022-07-10T07:56:28;95449.63;;;22.92
31528;BMP280;10206;48.012;10.030;2022-07-10T07:58:54;95448.44;;;22.97
31528;BMP280;10206;48.012;10.030;2022-07-10T08:01:20;95445.22;;;23.41
31528;BMP280;10206;48.012;10.030;2022-07-10T08:03:46;95443.25;;;22.36
31528;BMP280;10206;48.012;10.030;2022-07-10T08:06:13;95435.91;;;22.43
31528;BMP280;10206;48.012;10.030;2022-07-10T08:08:39;95440.44;;;21.68
31528;BMP280;10206;48.012;10.030;2022-07-10T08:11:05;95442.91;;;21.93
31528;BMP280;10206;48.012;10.030;2022-07-10T08:13:31;95437.56;;;21.66
31528;BMP280;10206;48.012;10.030;2022-07-10T08:15:59;95435.03;;;21.72
31528;BMP280;10206;48.012;10.030;2022-07-10T08:18:26;95438.59;;;21.90
31528;BMP280;10206;48.012;10.030;2022-07-10T08:20:52;95433.09;;;22.25
31528;BMP280;10206;48.012;10.030;2022-07-10T08:23:18;95444.25;;;22.60
31528;BMP280;10206;48.012;10.030;2022-07-10T08:25:44;95447.56;;;23.10
31528;BMP280;10206;48.012;10.030;2022-07-10T08:28:10;95434.66;;;23.77
31528;BMP280;10206;48.012;10.030;2022-07-10T08:30:38;95430.25;;;24.11
31528;BMP280;10206;48.012;10.030;2022-07-10T08:33:04;95438.56;;;23.31
31528;BMP280;10206;48.012;10.030;2022-07-10T08:35:30;95426.53;;;22.70
31528;BMP280;10206;48.012;10.030;2022-07-10T08:37:57;95430.41;;;22.27
31528;BMP280;10206;48.012;10.030;2022-07-10T08:40:23;95440.06;;;22.77
31528;BMP280;10206;48.012;10.030;2022-07-10T08:42:49;95437.84;;;23.11
31528;BMP280;10206;48.012;10.030;2022-07-10T08:45:16;95440.97;;;23.99
31528;BMP280;10206;48.012;10.030;2022-07-10T08:47:42;95435.47;;;24.23
31528;BMP280;10206;48.012;10.030;2022-07-10T08:50:24;95432.72;;;23.62
31528;BMP280;10206;48.012;10.030;2022-07-10T08:53:09;95435.75;;;23.68
31528;BMP280;10206;48.012;10.030;2022-07-10T08:55:38;95441.50;;;24.15
31528;BMP280;10206;48.012;10.030;2022-07-10T08:58:04;95439.69;;;24.02
31528;BMP280;10206;48.012;10.030;2022-07-10T09:00:31;95440.75;;;23.15
31528;BMP280;10206;48.012;10.030;2022-07-10T09:02:58;95434.00;;;23.20
31528;BMP280;10206;48.012;10.030;2022-07-10T09:05:25;95436.97;;;22.51
31528;BMP280;10206;48.012;10.030;2022-07-10T09:07:52;95437.50;;;22.66
31528;BMP280;10206;48.012;10.030;2022-07-10T09:10:20;95437.78;;;22.91
31528;BMP280;10206;48.012;10.030;2022-07-10T09:13:00;95433.44;;;23.62
31528;BMP280;10206;48.012;10.030;2022-07-10T09:15:29;95432.91;;;23.88
31528;BMP280;10206;48.012;10.030;2022-07-10T09:18:03;95430.91;;;24.55
31528;BMP280;10206;48.012;10.030;2022-07-10T09:20:36;95428.06;;;25.75
31528;BMP280;10206;48.012;10.030;2022-07-10T09:23:18;95428.13;;;24.76
31528;BMP280;10206;48.012;10.030;2022-07-10T09:25:49;95444.25;;;24.56
31528;BMP280;10206;48.012;10.030;2022-07-10T09:28:20;95435.28;;;23.17
31528;BMP280;10206;48.012;10.030;2022-07-10T09:30:47;95431.75;;;22.97
31528;BMP280;10206;48.012;10.030;2022-07-10T09:41:16;95423.50;;;23.97
31528;BMP280;10206;48.012;10.030;2022-07-10T09:43:51;95424.66;;;24.78
31528;BMP280;10206;48.012;10.030;2022-07-10T09:46:20;95423.69;;;25.17
31528;BMP280;10206;48.012;10.030;2022-07-10T09:48:47;95418.78;;;25.94
31528;BMP280;10206;48.012;10.030;2022-07-10T09:51:13;95427.88;;;25.16
31528;BMP280;10206;48.012;10.030;2022-07-10T09:53:44;95422.78;;;24.18
31528;BMP280;10206;48.012;10.030;2022-07-10T09:56:12;95421.97;;;24.15
31528;BMP280;10206;48.012;10.030;2022-07-10T09:58:39;95415.66;;;23.52
31528;BMP280;10206;48.012;10.030;2022-07-10T10:01:06;95412.19;;;23.93
31528;BMP280;10206;48.012;10.030;2022-07-10T10:03:38;95420.25;;;23.43
31528;BMP280;10206;48.012;10.030;2022-07-10T10:06:15;95417.84;;;24.16
31528;BMP280;10206;48.012;10.030;2022-07-10T10:08:47;95410.22;;;24.85
31528;BMP280;10206;48.012;10.030;2022-07-10T10:11:16;95403.00;;;24.76
31528;BMP280;10206;48.012;10.030;2022-07-10T10:13:45;95406.88;;;25.38
31528;BMP280;10206;48.012;10.030;2022-07-10T10:16:12;95392.28;;;25.97
31528;BMP280;10206;48.012;10.030;2022-07-10T10:18:38;95402.78;;;25.18
31528;BMP280;10206;48.012;10.030;2022-07-10T10:21:26;95401.09;;;24.83
31528;BMP280;10206;48.012;10.030;2022-07-10T10:23:54;95393.38;;;24.36
31528;BMP280;10206;48.012;10.030;2022-07-10T10:26:22;95402.47;;;24.15
31528;BMP280;10206;48.012;10.030;2022-07-10T10:28:53;95407.38;;;23.95
31528;BMP280;10206;48.012;10.030;2022-07-10T10:31:24;95400.03;;;24.70
31528;BMP280;10206;48.012;10.030;2022-07-10T10:33:55;95400.56;;;25.38
31528;BMP280;10206;48.012;10.030;2022-07-10T10:39:19;95404.13;;;25.42
31528;BMP280;10206;48.012;10.030;2022-07-10T10:47:04;95395.31;;;25.00
31528;BMP280;10206;48.012;10.030;2022-07-10T10:52:16;95408.25;;;25.13
31528;BMP280;10206;48.012;10.030;2022-07-10T11:00:02;95406.28;;;25.69
31528;BMP280;10206;48.012;10.030;2022-07-10T11:02:34;95415.13;;;25.34
31528;BMP280;10206;48.012;10.030;2022-07-10T11:13:04;95404.56;;;25.84
31528;BMP280;10206;48.012;10.030;2022-07-10T11:15:32;95401.44;;;25.44
31528;BMP280;10206;48.012;10.030;2022-07-10T11:20:33;95408.81;;;25.34
31528;BMP280;10206;48.012;10.030;2022-07-10T11:26:08;95400.06;;;26.93
31528;BMP280;10206;48.012;10.030;2022-07-10T11:31:04;95383.91;;;26.26
31528;BMP280;10206;48.012;10.030;2022-07-10T11:33:40;95399.59;;;26.10
31528;BMP280;10206;48.012;10.030;2022-07-10T11:36:11;95399.28;;;25.96
31528;BMP280;10206;48.012;10.030;2022-07-10T11:38:41;95398.28;;;25.58
31528;BMP280;10206;48.012;10.030;2022-07-10T11:41:20;95389.81;;;26.09
31528;BMP280;10206;48.012;10.030;2022-07-10T11:44:00;95377.91;;;25.81
31528;BMP280;10206;48.012;10.030;2022-07-10T11:46:34;95397.44;;;26.36
31528;BMP280;10206;48.012;10.030;2022-07-10T11:49:04;95394.84;;;27.11
31528;BMP280;10206;48.012;10.030;2022-07-10T11:51:35;95381.56;;;27.51
31528;BMP280;10206;48.012;10.030;2022-07-10T11:56:33;95373.38;;;25.40
31528;BMP280;10206;48.012;10.030;2022-07-10T11:59:05;95388.38;;;25.27
31528;BMP280;10206;48.012;10.030;2022-07-10T12:01:34;95390.81;;;25.66
31528;BMP280;10206;48.012;10.030;2022-07-10T12:04:03;95375.84;;;26.40
31528;BMP280;10206;48.012;10.030;2022-07-10T12:06:31;95377.78;;;26.66
31528;BMP280;10206;48.012;10.030;2022-07-10T12:09:05;95358.22;;;26.04
31528;BMP280;10206;48.012;10.030;2022-07-10T12:11:32;95364.63;;;26.09
31528;BMP280;10206;48.012;10.030;2022-07-10T12:16:44;95379.25;;;25.25
31528;BMP280;10206;48.012;10.030;2022-07-10T12:19:24;95374.47;;;25.82
31528;BMP280;10206;48.012;10.030;2022-07-10T12:21:51;95367.31;;;26.66
31528;BMP280;10206;48.012;10.030;2022-07-10T12:24:18;95373.47;;;26.29
31528;BMP280;10206;48.012;10.030;2022-07-10T12:26:50;95378.53;;;25.24
31528;BMP280;10206;48.012;10.030;2022-07-10T12:29:26;95374.53;;;24.82
31528;BMP280;10206;48.012;10.030;2022-07-10T12:31:57;95373.69;;;24.54
31528;BMP280;10206;48.012;10.030;2022-07-10T12:34:38;95395.66;;;25.13
31528;BMP280;10206;48.012;10.030;2022-07-10T12:37:13;95394.31;;;24.90
31528;BMP280;10206;48.012;10.030;2022-07-10T12:39:53;95389.84;;;25.83
31528;BMP280;10206;48.012;10.030;2022-07-10T12:42:30;95386.47;;;26.46
31528;BMP280;10206;48.012;10.030;2022-07-10T12:45:13;95396.19;;;26.75
31528;BMP280;10206;48.012;10.030;2022-07-10T12:47:47;95397.91;;;26.26
31528;BMP280;10206;48.012;10.030;2022-07-10T12:50:14;95390.78;;;25.92
31528;BMP280;10206;48.012;10.030;2022-07-10T12:52:42;95390.72;;;25.90
31528;BMP280;10206;48.012;10.030;2022-07-10T12:55:20;95392.72;;;26.76
31528;BMP280;10206;48.012;10.030;2022-07-10T12:57:53;95394.41;;;26.58
31528;BMP280;10206;48.012;10.030;2022-07-10T13:02:58;95399.44;;;26.97
31528;BMP280;10206;48.012;10.030;2022-07-10T13:07:52;95386.38;;;25.83
31528;BMP280;10206;48.012;10.030;2022-07-10T13:10:18;95398.88;;;25.80
31528;BMP280;10206;48.012;10.030;2022-07-10T13:12:45;95374.25;;;25.74
31528;BMP280;10206;48.012;10.030;2022-07-10T13:15:11;95386.25;;;25.79
31528;BMP280;10206;48.012;10.030;2022-07-10T13:17:44;95386.13;;;24.96
31528;BMP280;10206;48.012;10.030;2022-07-10T13:20:10;95386.41;;;25.57
31528;BMP280;10206;48.012;10.030;2022-07-10T13:22:36;95386.91;;;26.05
31528;BMP280;10206;48.012;10.030;2022-07-10T13:25:03;95386.41;;;25.57
31528;BMP280;10206;48.012;10.030;2022-07-10T13:27:29;95392.03;;;25.32
31528;BMP280;10206;48.012;10.030;2022-07-10T13:29:55;95385.31;;;25.17
31528;BMP280;10206;48.012;10.030;2022-07-10T13:32:21;95389.56;;;25.20
31528;BMP280;10206;48.012;10.030;2022-07-10T13:34:47;95390.25;;;25.72
31528;BMP280;10206;48.012;10.030;2022-07-10T13:37:13;95376.31;;;25.46
31528;BMP280;10206;48.012;10.030;2022-07-10T13:39:40;95383.41;;;25.24
31528;BMP280;10206;48.012;10.030;2022-07-10T13:42:06;95378.22;;;25.38
31528;BMP280;10206;48.012;10.030;2022-07-10T13:44:32;95383.41;;;25.00
31528;BMP280;10206;48.012;10.030;2022-07-10T13:47:02;95375.47;;;25.42
31528;BMP280;10206;48.012;10.030;2022-07-10T13:49:28;95376.50;;;25.01
31528;BMP280;10206;48.012;10.030;2022-07-10T13:51:54;95379.78;;;24.70
31528;BMP280;10206;48.012;10.030;2022-07-10T13:54:20;95376.31;;;24.71
31528;BMP280;10206;48.012;10.030;2022-07-10T13:56:46;95371.16;;;25.62
31528;BMP280;10206;48.012;10.030;2022-07-10T13:59:12;95382.03;;;25.25
31528;BMP280;10206;48.012;10.030;2022-07-10T14:01:38;95381.06;;;24.90
31528;BMP280;10206;48.012;10.030;2022-07-10T14:04:05;95383.00;;;25.09
31528;BMP280;10206;48.012;10.030;2022-07-10T14:06:31;95388.16;;;24.70
31528;BMP280;10206;48.012;10.030;2022-07-10T14:08:57;95376.50;;;25.27
31528;BMP280;10206;48.012;10.030;2022-07-10T14:11:23;95374.03;;;24.64
31528;BMP280;10206;48.012;10.030;2022-07-10T14:13:49;95380.75;;;25.04
31528;BMP280;10206;48.012;10.030;2022-07-10T14:16:15;95376.69;;;24.83
31528;BMP280;10206;48.012;10.030;2022-07-10T14:18:41;95377.50;;;24.19
31528;BMP280;10206;48.012;10.030;2022-07-10T14:21:11;95382.00;;;24.52
31528;BMP280;10206;48.012;10.030;2022-07-10T14:23:40;95373.63;;;24.99
31528;BMP280;10206;48.012;10.030;2022-07-10T14:26:14;95379.19;;;24.73
31528;BMP280;10206;48.012;10.030;2022-07-10T14:28:40;95378.53;;;25.24
31528;BMP280;10206;48.012;10.030;2022-07-10T14:31:07;95385.78;;;25.35
31528;BMP280;10206;48.012;10.030;2022-07-10T14:33:35;95379.94;;;24.99
31528;BMP280;10206;48.012;10.030;2022-07-10T14:36:02;95378.63;;;25.02
31528;BMP280;10206;48.012;10.030;2022-07-10T14:38:28;95377.16;;;25.25
31528;BMP280;10206;48.012;10.030;2022-07-10T14:40:55;95381.84;;;24.93
31528;BMP280;10206;48.012;10.030;2022-07-10T14:43:22;95382.47;;;24.68
31528;BMP280;10206;48.012;10.030;2022-07-10T14:45:50;95384.97;;;24.81
31528;BMP280;10206;48.012;10.030;2022-07-10T14:48:16;95383.91;;;24.69
31528;BMP280;10206;48.012;10.030;2022-07-10T14:50:42;95383.91;;;24.02